sensor_id;sensor_type;location;lat;lon;timestamp;P1;durP1;ratioP1;P2;durP2;ratioP2
25511;SDS011;13414;44.534;18.700;2023-02-01T00:00:02;363.30;;;201.93;;
25511;SDS011;13414;44.534;18.700;2023-02-01T00:02:30;339.08;;;190.73;;
25511;SDS011;13414;44.534;18.700;2023-02-01T00:04:58;315.80;;;178.43;;
25511;SDS011;13414;44.534;18.700;2023-02-01T00:07:25;283.38;;;162.70;;
25511;SDS011;13414;44.534;18.700;2023-02-01T00:09:54;262.52;;;154.75;;
25511;SDS011;13414;44.534;18.700;2023-02-01T00:12:21;251.50;;;149.98;;
25511;SDS011;13414;44.534;18.700;2023-02-01T00:14:49;242.13;;;141.95;;
25511;SDS011;13414;44.534;18.700;2023-02-01T00:17:16;261.52;;;156.13;;
25511;SDS011;13414;44.534;18.700;2023-02-01T00:19:44;265.60;;;156.27;;
25511;SDS011;13414;44.534;18.700;2023-02-01T00:22:11;262.27;;;151.05;;
25511;SDS011;13414;44.534;18.700;2023-02-01T00:24:39;244.95;;;143.45;;
25511;SDS011;13414;44.534;18.700;2023-02-01T00:27:08;252.88;;;150.27;;
25511;SDS011;13414;44.534;18.700;2023-02-01T00:29:35;234.98;;;141.00;;
25511;SDS011;13414;44.534;18.700;2023-02-01T00:32:03;223.60;;;133.70;;
25511;SDS011;13414;44.534;18.700;2023-02-01T00:34:30;240.48;;;139.00;;
25511;SDS011;13414;44.534;18.700;2023-02-01T00:36:58;245.77;;;139.63;;
25511;SDS011;13414;44.534;18.700;2023-02-01T00:39:25;245.68;;;141.68;;
25511;SDS011;13414;44.534;18.700;2023-02-01T00:41:53;276.08;;;154.07;;
25511;SDS011;13414;44.534;18.700;2023-02-01T00:44:21;259.55;;;145.85;;
25511;SDS011;13414;44.534;18.700;2023-02-01T00:46:49;315.98;;;173.38;;
25511;SDS011;13414;44.534;18.700;2023-02-01T00:49:16;263.17;;;149.50;;
25511;SDS011;13414;44.534;18.700;2023-02-01T00:51:44;279.95;;;158.52;;
25511;SDS011;13414;44.534;18.700;2023-02-01T00:54:11;239.18;;;135.35;;
25511;SDS011;13414;44.534;18.700;2023-02-01T00:56:39;214.75;;;124.75;;
25511;SDS011;13414;44.534;18.700;2023-02-01T00:59:07;221.70;;;129.13;;
25511;SDS011;13414;44.534;18.700;2023-02-01T01:01:39;248.43;;;142.73;;
25511;SDS011;13414;44.534;18.700;2023-02-01T01:04:06;240.80;;;133.80;;
25511;SDS011;13414;44.534;18.700;2023-02-01T01:06:34;236.82;;;133.98;;
25511;SDS011;13414;44.534;18.700;2023-02-01T01:09:03;187.50;;;107.60;;
25511;SDS011;13414;44.534;18.700;2023-02-01T01:11:33;207.27;;;113.30;;
25511;SDS011;13414;44.534;18.700;2023-02-01T01:14:04;203.32;;;112.25;;
25511;SDS011;13414;44.534;18.700;2023-02-01T01:16:34;209.88;;;112.47;;
25511;SDS011;13414;44.534;18.700;2023-02-01T01:19:03;222.98;;;122.82;;
25511;SDS011;13414;44.534;18.700;2023-02-01T01:21:32;196.70;;;104.95;;
25511;SDS011;13414;44.534;18.700;2023-02-01T01:23:59;227.27;;;119.93;;
25511;SDS011;13414;44.534;18.700;2023-02-01T01:26:27;240.90;;;130.30;;
25511;SDS011;13414;44.534;18.700;2023-02-01T01:28:56;215.85;;;113.82;;
25511;SDS011;13414;44.534;18.700;2023-02-01T01:31:24;212.63;;;113.57;;
25511;SDS011;13414;44.534;18.700;2023-02-01T01:33:54;198.23;;;105.93;;
25511;SDS011;13414;44.534;18.700;2023-02-01T01:36:24;187.15;;;102.93;;
25511;SDS011;13414;44.534;18.700;2023-02-01T01:38:52;182.85;;;100.00;;
25511;SDS011;13414;44.534;18.700;2023-02-01T01:41:20;184.63;;;103.20;;
25511;SDS011;13414;44.534;18.700;2023-02-01T01:43:51;173.75;;;95.53;;
25511;SDS011;13414;44.534;18.700;2023-02-01T01:46:23;167.43;;;93.35;;
25511;SDS011;13414;44.534;18.700;2023-02-01T01:48:55;170.45;;;91.35;;
25511;SDS011;13414;44.534;18.700;2023-02-01T01:51:30;184.68;;;99.75;;
25511;SDS011;13414;44.534;18.700;2023-02-01T01:54:01;169.57;;;93.03;;
25511;SDS011;13414;44.534;18.700;2023-02-01T01:56:31;165.57;;;89.50;;
25511;SDS011;13414;44.534;18.700;2023-02-01T01:59:01;156.50;;;86.32;;
25511;SDS011;13414;44.534;18.700;2023-02-01T02:01:29;151.75;;;84.65;;
25511;SDS011;13414;44.534;18.700;2023-02-01T02:03:56;146.15;;;79.35;;
25511;SDS011;13414;44.534;18.700;2023-02-01T02:06:33;155.93;;;82.78;;
25511;SDS011;13414;44.534;18.700;2023-02-01T02:09:06;157.95;;;90.93;;
25511;SDS011;13414;44.534;18.700;2023-02-01T02:11:34;184.40;;;106.63;;
25511;SDS011;13414;44.534;18.700;2023-02-01T02:14:02;170.02;;;93.15;;
25511;SDS011;13414;44.534;18.700;2023-02-01T02:16:36;163.05;;;92.88;;
25511;SDS011;13414;44.534;18.700;2023-02-01T02:22:27;180.48;;;106.78;;
25511;SDS011;13414;44.534;18.700;2023-02-01T02:25:24;178.82;;;105.68;;
25511;SDS011;13414;44.534;18.700;2023-02-01T02:28:27;179.98;;;109.70;;
25511;SDS011;13414;44.534;18.700;2023-02-01T02:31:27;147.45;;;94.15;;
25511;SDS011;13414;44.534;18.700;2023-02-01T02:34:23;137.20;;;85.70;;
25511;SDS011;13414;44.534;18.700;2023-02-01T02:36:56;134.15;;;79.93;;
25511;SDS011;13414;44.534;18.700;2023-02-01T02:39:34;128.00;;;80.82;;
25511;SDS011;13414;44.534;18.700;2023-02-01T02:42:12;147.25;;;89.90;;
25511;SDS011;13414;44.534;18.700;2023-02-01T02:45:02;147.38;;;90.47;;
25511;SDS011;13414;44.534;18.700;2023-02-01T02:47:53;122.20;;;76.78;;
25511;SDS011;13414;44.534;18.700;2023-02-01T02:50:29;133.52;;;85.90;;
25511;SDS011;13414;44.534;18.700;2023-02-01T02:53:21;135.40;;;82.80;;
25511;SDS011;13414;44.534;18.700;2023-02-01T02:56:08;145.25;;;87.22;;
25511;SDS011;13414;44.534;18.700;2023-02-01T02:58:56;152.45;;;88.78;;
25511;SDS011;13414;44.534;18.700;2023-02-01T03:01:42;150.38;;;87.80;;
25511;SDS011;13414;44.534;18.700;2023-02-01T03:04:27;144.18;;;83.22;;
25511;SDS011;13414;44.534;18.700;2023-02-01T03:06:56;131.57;;;76.65;;
25511;SDS011;13414;44.534;18.700;2023-02-01T03:09:25;127.20;;;75.32;;
25511;SDS011;13414;44.534;18.700;2023-02-01T03:11:58;148.45;;;83.10;;
25511;SDS011;13414;44.534;18.700;2023-02-01T03:14:49;173.02;;;95.93;;
25511;SDS011;13414;44.534;18.700;2023-02-01T03:17:19;164.77;;;91.32;;
25511;SDS011;13414;44.534;18.700;2023-02-01T03:19:51;143.27;;;82.95;;
25511;SDS011;13414;44.534;18.700;2023-02-01T03:22:23;145.82;;;83.28;;
25511;SDS011;13414;44.534;18.700;2023-02-01T03:24:53;117.05;;;71.13;;
25511;SDS011;13414;44.534;18.700;2023-02-01T03:27:24;115.00;;;67.72;;
25511;SDS011;13414;44.534;18.700;2023-02-01T03:29:59;122.90;;;73.80;;
25511;SDS011;13414;44.534;18.700;2023-02-01T03:32:35;115.93;;;69.47;;
25511;SDS011;13414;44.534;18.700;2023-02-01T03:35:18;109.57;;;64.70;;
25511;SDS011;13414;44.534;18.700;2023-02-01T03:37:53;101.20;;;58.58;;
25511;SDS011;13414;44.534;18.700;2023-02-01T03:42:58;82.00;;;49.38;;
25511;SDS011;13414;44.534;18.700;2023-02-01T03:45:28;74.80;;;44.15;;
25511;SDS011;13414;44.534;18.700;2023-02-01T03:48:01;83.60;;;50.90;;
25511;SDS011;13414;44.534;18.700;2023-02-01T03:50:31;97.85;;;59.65;;
25511;SDS011;13414;44.534;18.700;2023-02-01T03:53:07;113.55;;;63.10;;
25511;SDS011;13414;44.534;18.700;2023-02-01T03:55:38;111.60;;;65.22;;
25511;SDS011;13414;44.534;18.700;2023-02-01T03:58:07;114.03;;;68.57;;
25511;SDS011;13414;44.534;18.700;2023-02-01T04:00:39;113.47;;;65.13;;
25511;SDS011;13414;44.534;18.700;2023-02-01T04:03:06;103.28;;;58.40;;
25511;SDS011;13414;44.534;18.700;2023-02-01T04:05:34;111.07;;;61.90;;
25511;SDS011;13414;44.534;18.700;2023-02-01T04:08:06;91.85;;;53.60;;
25511;SDS011;13414;44.534;18.700;2023-02-01T04:10:33;96.78;;;57.03;;
25511;SDS011;13414;44.534;18.700;2023-02-01T04:13:01;106.10;;;60.03;;
25511;SDS011;13414;44.534;18.700;2023-02-01T04:15:28;101.15;;;59.60;;
25511;SDS011;13414;44.534;18.700;2023-02-01T04:17:56;110.68;;;61.38;;
25511;SDS011;13414;44.534;18.700;2023-02-01T04:20:23;105.03;;;61.50;;
25511;SDS011;13414;44.534;18.700;2023-02-01T04:22:51;105.97;;;60.92;;
25511;SDS011;13414;44.534;18.700;2023-02-01T04:25:20;122.28;;;66.88;;
25511;SDS011;13414;44.534;18.700;2023-02-01T04:27:49;115.00;;;64.78;;
25511;SDS011;13414;44.534;18.700;2023-02-01T04:30:16;98.70;;;54.33;;
25511;SDS011;13414;44.534;18.700;2023-02-01T04:32:44;88.18;;;50.08;;
25511;SDS011;13414;44.534;18.700;2023-02-01T04:35:12;84.57;;;49.38;;
25511;SDS011;13414;44.534;18.700;2023-02-01T04:37:39;80.95;;;45.72;;
25511;SDS011;13414;44.534;18.700;2023-02-01T04:40:07;81.60;;;48.13;;
25511;SDS011;13414;44.534;18.700;2023-02-01T04:42:37;103.65;;;58.55;;
25511;SDS011;13414;44.534;18.700;2023-02-01T04:45:05;93.25;;;51.58;;
25511;SDS011;13414;44.534;18.700;2023-02-01T04:47:34;98.47;;;57.47;;
25511;SDS011;13414;44.534;18.700;2023-02-01T04:50:01;103.43;;;59.58;;
25511;SDS011;13414;44.534;18.700;2023-02-01T04:52:29;146.20;;;78.53;;
25511;SDS011;13414;44.534;18.700;2023-02-01T04:54:56;121.03;;;72.63;;
25511;SDS011;13414;44.534;18.700;2023-02-01T04:57:25;112.93;;;69.03;;
25511;SDS011;13414;44.534;18.700;2023-02-01T04:59:54;114.53;;;68.00;;
25511;SDS011;13414;44.534;18.700;2023-02-01T05:02:22;113.78;;;68.45;;
25511;SDS011;13414;44.534;18.700;2023-02-01T05:04:49;116.65;;;70.10;;
25511;SDS011;13414;44.534;18.700;2023-02-01T05:07:17;161.93;;;86.82;;
25511;SDS011;13414;44.534;18.700;2023-02-01T05:09:44;155.18;;;84.68;;
25511;SDS011;13414;44.534;18.700;2023-02-01T05:12:11;131.90;;;78.05;;
25511;SDS011;13414;44.534;18.700;2023-02-01T05:14:58;127.90;;;76.07;;
25511;SDS011;13414;44.534;18.700;2023-02-01T05:17:25;118.07;;;69.75;;
25511;SDS011;13414;44.534;18.700;2023-02-01T05:19:52;108.03;;;63.70;;
25511;SDS011;13414;44.534;18.700;2023-02-01T05:22:20;111.72;;;67.38;;
25511;SDS011;13414;44.534;18.700;2023-02-01T05:24:47;125.68;;;77.25;;
25511;SDS011;13414;44.534;18.700;2023-02-01T05:27:15;136.68;;;83.20;;
25511;SDS011;13414;44.534;18.700;2023-02-01T05:29:42;139.55;;;88.05;;
25511;SDS011;13414;44.534;18.700;2023-02-01T05:32:11;128.80;;;78.28;;
25511;SDS011;13414;44.534;18.700;2023-02-01T05:34:39;137.98;;;85.90;;
25511;SDS011;13414;44.534;18.700;2023-02-01T05:37:10;121.38;;;72.75;;
25511;SDS011;13414;44.534;18.700;2023-02-01T05:39:38;96.35;;;61.03;;
25511;SDS011;13414;44.534;18.700;2023-02-01T05:42:05;106.53;;;67.45;;
25511;SDS011;13414;44.534;18.700;2023-02-01T05:44:33;91.43;;;57.63;;
25511;SDS011;13414;44.534;18.700;2023-02-01T05:47:00;96.38;;;59.78;;
25511;SDS011;13414;44.534;18.700;2023-02-01T05:49:29;95.18;;;58.30;;
25511;SDS011;13414;44.534;18.700;2023-02-01T05:51:57;94.57;;;59.95;;
25511;SDS011;13414;44.534;18.700;2023-02-01T05:54:24;98.78;;;58.45;;
25511;SDS011;13414;44.534;18.700;2023-02-01T05:56:52;91.75;;;53.35;;
25511;SDS011;13414;44.534;18.700;2023-02-01T05:59:19;80.47;;;45.80;;
25511;SDS011;13414;44.534;18.700;2023-02-01T06:01:47;82.93;;;50.83;;
25511;SDS011;13414;44.534;18.700;2023-02-01T06:04:14;124.22;;;76.10;;
25511;SDS011;13414;44.534;18.700;2023-02-01T06:06:43;112.63;;;69.03;;
25511;SDS011;13414;44.534;18.700;2023-02-01T06:09:12;109.97;;;69.32;;
25511;SDS011;13414;44.534;18.700;2023-02-01T06:11:39;108.22;;;67.63;;
25511;SDS011;13414;44.534;18.700;2023-02-01T06:14:06;110.03;;;67.28;;
25511;SDS011;13414;44.534;18.700;2023-02-01T06:16:34;113.00;;;66.10;;
25511;SDS011;13414;44.534;18.700;2023-02-01T06:19:02;115.63;;;63.30;;
25511;SDS011;13414;44.534;18.700;2023-02-01T06:21:29;127.65;;;72.70;;
25511;SDS011;13414;44.534;18.700;2023-02-01T06:23:58;149.68;;;82.45;;
25511;SDS011;13414;44.534;18.700;2023-02-01T06:26:25;141.95;;;79.28;;
25511;SDS011;13414;44.534;18.700;2023-02-01T06:28:53;123.32;;;72.35;;
25511;SDS011;13414;44.534;18.700;2023-02-01T06:31:21;119.22;;;68.85;;
25511;SDS011;13414;44.534;18.700;2023-02-01T06:33:51;119.35;;;66.90;;
25511;SDS011;13414;44.534;18.700;2023-02-01T06:36:19;130.35;;;76.10;;
25511;SDS011;13414;44.534;18.700;2023-02-01T06:38:47;150.70;;;82.88;;
25511;SDS011;13414;44.534;18.700;2023-02-01T06:41:16;165.75;;;92.47;;
25511;SDS011;13414;44.534;18.700;2023-02-01T06:43:47;183.65;;;101.43;;
25511;SDS011;13414;44.534;18.700;2023-02-01T06:46:15;178.68;;;97.22;;
25511;SDS011;13414;44.534;18.700;2023-02-01T06:48:42;185.27;;;97.90;;
25511;SDS011;13414;44.534;18.700;2023-02-01T06:51:20;193.68;;;103.45;;
25511;SDS011;13414;44.534;18.700;2023-02-01T06:53:50;225.55;;;115.82;;
25511;SDS011;13414;44.534;18.700;2023-02-01T06:56:19;212.98;;;116.55;;
25511;SDS011;13414;44.534;18.700;2023-02-01T06:58:47;208.75;;;112.32;;
25511;SDS011;13414;44.534;18.700;2023-02-01T07:01:15;191.73;;;99.65;;
25511;SDS011;13414;44.534;18.700;2023-02-01T07:03:46;201.20;;;103.38;;
25511;SDS011;13414;44.534;18.700;2023-02-01T07:06:15;229.10;;;109.15;;
25511;SDS011;13414;44.534;18.700;2023-02-01T07:08:42;225.20;;;113.45;;
25511;SDS011;13414;44.534;18.700;2023-02-01T07:11:10;202.55;;;106.18;;
25511;SDS011;13414;44.534;18.700;2023-02-01T07:13:40;197.13;;;110.15;;
25511;SDS011;13414;44.534;18.700;2023-02-01T07:16:09;207.98;;;112.70;;
25511;SDS011;13414;44.534;18.700;2023-02-01T07:18:38;193.55;;;105.07;;
25511;SDS011;13414;44.534;18.700;2023-02-01T07:21:06;187.68;;;102.72;;
25511;SDS011;13414;44.534;18.700;2023-02-01T07:23:34;222.95;;;117.03;;
25511;SDS011;13414;44.534;18.700;2023-02-01T07:26:02;261.00;;;131.05;;
25511;SDS011;13414;44.534;18.700;2023-02-01T07:28:31;258.05;;;131.90;;
25511;SDS011;13414;44.534;18.700;2023-02-01T07:31:04;265.20;;;137.43;;
25511;SDS011;13414;44.534;18.700;2023-02-01T07:33:33;260.27;;;135.57;;
25511;SDS011;13414;44.534;18.700;2023-02-01T07:36:01;270.70;;;146.90;;
25511;SDS011;13414;44.534;18.700;2023-02-01T07:38:30;307.75;;;154.75;;
25511;SDS011;13414;44.534;18.700;2023-02-01T07:40:58;281.20;;;145.15;;
25511;SDS011;13414;44.534;18.700;2023-02-01T07:43:26;261.55;;;135.80;;
25511;SDS011;13414;44.534;18.700;2023-02-01T07:45:53;242.80;;;130.25;;
25511;SDS011;13414;44.534;18.700;2023-02-01T07:48:23;219.73;;;120.45;;
25511;SDS011;13414;44.534;18.700;2023-02-01T07:50:56;230.75;;;127.97;;
25511;SDS011;13414;44.534;18.700;2023-02-01T07:53:27;189.10;;;103.70;;
25511;SDS011;13414;44.534;18.700;2023-02-01T07:55:56;171.05;;;97.15;;
25511;SDS011;13414;44.534;18.700;2023-02-01T07:58:23;217.13;;;120.03;;
25511;SDS011;13414;44.534;18.700;2023-02-01T08:00:51;193.55;;;104.90;;
25511;SDS011;13414;44.534;18.700;2023-02-01T08:03:38;191.05;;;104.57;;
25511;SDS011;13414;44.534;18.700;2023-02-01T08:06:05;154.50;;;90.00;;
25511;SDS011;13414;44.534;18.700;2023-02-01T08:08:33;134.00;;;75.55;;
25511;SDS011;13414;44.534;18.700;2023-02-01T08:11:01;130.27;;;74.28;;
25511;SDS011;13414;44.534;18.700;2023-02-01T08:13:31;133.35;;;76.82;;
25511;SDS011;13414;44.534;18.700;2023-02-01T08:16:00;153.35;;;89.07;;
25511;SDS011;13414;44.534;18.700;2023-02-01T08:18:28;156.45;;;87.82;;
25511;SDS011;13414;44.534;18.700;2023-02-01T08:21:01;185.70;;;105.63;;
25511;SDS011;13414;44.534;18.700;2023-02-01T08:23:30;184.50;;;104.82;;
25511;SDS011;13414;44.534;18.700;2023-02-01T08:26:03;176.10;;;102.78;;
25511;SDS011;13414;44.534;18.700;2023-02-01T08:28:32;188.27;;;103.50;;
25511;SDS011;13414;44.534;18.700;2023-02-01T08:31:03;187.50;;;103.72;;
25511;SDS011;13414;44.534;18.700;2023-02-01T08:33:33;169.55;;;97.35;;
25511;SDS011;13414;44.534;18.700;2023-02-01T08:36:03;156.60;;;93.50;;
25511;SDS011;13414;44.534;18.700;2023-02-01T08:38:31;135.98;;;78.40;;
25511;SDS011;13414;44.534;18.700;2023-02-01T08:41:03;141.63;;;77.38;;
25511;SDS011;13414;44.534;18.700;2023-02-01T08:43:32;130.82;;;74.53;;
25511;SDS011;13414;44.534;18.700;2023-02-01T08:45:59;120.28;;;66.47;;
25511;SDS011;13414;44.534;18.700;2023-02-01T08:48:27;113.22;;;65.03;;
25511;SDS011;13414;44.534;18.700;2023-02-01T08:50:54;111.22;;;60.30;;
25511;SDS011;13414;44.534;18.700;2023-02-01T08:53:23;99.15;;;53.78;;
25511;SDS011;13414;44.534;18.700;2023-02-01T08:55:51;104.13;;;58.35;;
25511;SDS011;13414;44.534;18.700;2023-02-01T08:58:18;105.38;;;59.88;;
25511;SDS011;13414;44.534;18.700;2023-02-01T09:00:47;89.82;;;49.90;;
25511;SDS011;13414;44.534;18.700;2023-02-01T09:03:17;100.28;;;54.97;;
25511;SDS011;13414;44.534;18.700;2023-02-01T09:05:47;94.25;;;51.75;;
25511;SDS011;13414;44.534;18.700;2023-02-01T09:08:15;101.80;;;56.47;;
25511;SDS011;13414;44.534;18.700;2023-02-01T09:10:45;94.85;;;54.40;;
25511;SDS011;13414;44.534;18.700;2023-02-01T09:13:13;96.63;;;55.17;;
25511;SDS011;13414;44.534;18.700;2023-02-01T09:15:40;105.35;;;54.90;;
25511;SDS011;13414;44.534;18.700;2023-02-01T09:18:08;95.05;;;54.58;;
25511;SDS011;13414;44.534;18.700;2023-02-01T09:20:36;94.25;;;52.50;;
25511;SDS011;13414;44.534;18.700;2023-02-01T09:23:04;99.93;;;54.67;;
25511;SDS011;13414;44.534;18.700;2023-02-01T09:25:32;105.38;;;60.67;;
25511;SDS011;13414;44.534;18.700;2023-02-01T09:28:01;105.70;;;61.88;;
25511;SDS011;13414;44.534;18.700;2023-02-01T09:30:31;96.88;;;57.20;;
25511;SDS011;13414;44.534;18.700;2023-02-01T09:32:58;95.55;;;54.92;;
25511;SDS011;13414;44.534;18.700;2023-02-01T09:35:26;103.18;;;59.40;;
25511;SDS011;13414;44.534;18.700;2023-02-01T09:37:54;85.15;;;53.05;;
25511;SDS011;13414;44.534;18.700;2023-02-01T09:40:21;93.00;;;54.05;;
25511;SDS011;13414;44.534;18.700;2023-02-01T09:42:54;80.68;;;48.30;;
25511;SDS011;13414;44.534;18.700;2023-02-01T09:45:35;84.45;;;49.45;;
25511;SDS011;13414;44.534;18.700;2023-02-01T09:48:12;79.22;;;46.92;;
25511;SDS011;13414;44.534;18.700;2023-02-01T09:50:44;77.43;;;45.97;;
25511;SDS011;13414;44.534;18.700;2023-02-01T09:53:18;79.50;;;45.97;;
25511;SDS011;13414;44.534;18.700;2023-02-01T09:55:53;72.97;;;43.17;;
25511;SDS011;13414;44.534;18.700;2023-02-01T09:58:25;61.38;;;35.92;;
25511;SDS011;13414;44.534;18.700;2023-02-01T10:00:59;63.97;;;39.55;;
25511;SDS011;13414;44.534;18.700;2023-02-01T10:03:30;53.88;;;31.77;;
25511;SDS011;13414;44.534;18.700;2023-02-01T10:06:13;51.03;;;31.13;;
25511;SDS011;13414;44.534;18.700;2023-02-01T10:09:02;48.28;;;27.73;;
25511;SDS011;13414;44.534;18.700;2023-02-01T10:11:40;45.20;;;25.63;;
25511;SDS011;13414;44.534;18.700;2023-02-01T10:14:34;46.35;;;26.27;;
25511;SDS011;13414;44.534;18.700;2023-02-01T10:17:13;42.55;;;24.67;;
25511;SDS011;13414;44.534;18.700;2023-02-01T10:19:52;42.28;;;22.25;;
25511;SDS011;13414;44.534;18.700;2023-02-01T10:22:28;40.80;;;22.90;;
25511;SDS011;13414;44.534;18.700;2023-02-01T10:25:08;34.13;;;18.90;;
25511;SDS011;13414;44.534;18.700;2023-02-01T10:27:44;33.95;;;19.08;;
25511;SDS011;13414;44.534;18.700;2023-02-01T10:30:18;32.15;;;17.38;;
25511;SDS011;13414;44.534;18.700;2023-02-01T10:32:47;30.55;;;16.48;;
25511;SDS011;13414;44.534;18.700;2023-02-01T10:35:21;32.15;;;16.10;;
25511;SDS011;13414;44.534;18.700;2023-02-01T10:37:53;30.20;;;16.53;;
25511;SDS011;13414;44.534;18.700;2023-02-01T10:40:23;32.50;;;18.67;;
25511;SDS011;13414;44.534;18.700;2023-02-01T10:42:52;31.10;;;18.20;;
25511;SDS011;13414;44.534;18.700;2023-02-01T10:45:25;28.42;;;18.40;;
25511;SDS011;13414;44.534;18.700;2023-02-01T10:47:54;30.75;;;17.65;;
25511;SDS011;13414;44.534;18.700;2023-02-01T10:50:28;25.40;;;16.67;;
25511;SDS011;13414;44.534;18.700;2023-02-01T10:53:02;37.17;;;18.58;;
25511;SDS011;13414;44.534;18.700;2023-02-01T10:55:34;33.83;;;18.42;;
25511;SDS011;13414;44.534;18.700;2023-02-01T10:58:05;26.63;;;16.23;;
25511;SDS011;13414;44.534;18.700;2023-02-01T11:00:38;28.20;;;16.67;;
25511;SDS011;13414;44.534;18.700;2023-02-01T11:03:28;34.45;;;17.02;;
25511;SDS011;13414;44.534;18.700;2023-02-01T11:06:04;36.58;;;21.23;;
25511;SDS011;13414;44.534;18.700;2023-02-01T11:08:49;37.60;;;19.55;;
25511;SDS011;13414;44.534;18.700;2023-02-01T11:11:18;41.28;;;21.95;;
25511;SDS011;13414;44.534;18.700;2023-02-01T11:13:51;44.67;;;23.63;;
25511;SDS011;13414;44.534;18.700;2023-02-01T11:16:23;44.40;;;23.92;;
25511;SDS011;13414;44.534;18.700;2023-02-01T11:18:57;42.13;;;23.95;;
25511;SDS011;13414;44.534;18.700;2023-02-01T11:21:25;40.47;;;22.33;;
25511;SDS011;13414;44.534;18.700;2023-02-01T11:23:53;36.08;;;20.40;;
25511;SDS011;13414;44.534;18.700;2023-02-01T11:26:21;41.88;;;18.65;;
25511;SDS011;13414;44.534;18.700;2023-02-01T11:28:52;33.60;;;18.20;;
25511;SDS011;13414;44.534;18.700;2023-02-01T11:31:24;32.95;;;16.10;;
25511;SDS011;13414;44.534;18.700;2023-02-01T11:34:06;25.17;;;14.38;;
25511;SDS011;13414;44.534;18.700;2023-02-01T11:36:40;26.30;;;16.52;;
25511;SDS011;13414;44.534;18.700;2023-02-01T11:39:26;23.88;;;15.18;;
25511;SDS011;13414;44.534;18.700;2023-02-01T11:45:16;27.63;;;13.90;;
25511;SDS011;13414;44.534;18.700;2023-02-01T11:48:17;25.80;;;14.55;;
25511;SDS011;13414;44.534;18.700;2023-02-01T11:58:35;25.42;;;14.23;;
25511;SDS011;13414;44.534;18.700;2023-02-01T12:01:18;25.20;;;14.95;;
25511;SDS011;13414;44.534;18.700;2023-02-01T12:04:03;26.90;;;15.48;;
25511;SDS011;13414;44.534;18.700;2023-02-01T12:06:43;22.80;;;14.20;;
25511;SDS011;13414;44.534;18.700;2023-02-01T12:12:06;31.02;;;18.27;;
25511;SDS011;13414;44.534;18.700;2023-02-01T12:14:45;28.40;;;16.48;;
25511;SDS011;13414;44.534;18.700;2023-02-01T12:20:35;35.47;;;15.32;;
25511;SDS011;13414;44.534;18.700;2023-02-01T12:23:21;59.17;;;40.35;;
25511;SDS011;13414;44.534;18.700;2023-02-01T12:26:05;39.40;;;23.30;;
25511;SDS011;13414;44.534;18.700;2023-02-01T12:28:59;32.83;;;19.33;;
25511;SDS011;13414;44.534;18.700;2023-02-01T12:31:41;32.88;;;18.63;;
25511;SDS011;13414;44.534;18.700;2023-02-01T12:34:35;33.72;;;20.70;;
25511;SDS011;13414;44.534;18.700;2023-02-01T12:39:52;34.20;;;19.73;;
25511;SDS011;13414;44.534;18.700;2023-02-01T12:42:36;33.10;;;20.63;;
25511;SDS011;13414;44.534;18.700;2023-02-01T12:45:10;38.95;;;21.17;;
25511;SDS011;13414;44.534;18.700;2023-02-01T12:47:44;41.88;;;21.02;;
25511;SDS011;13414;44.534;18.700;2023-02-01T12:50:18;40.15;;;21.60;;
25511;SDS011;13414;44.534;18.700;2023-02-01T12:52:52;35.97;;;22.95;;
25511;SDS011;13414;44.534;18.700;2023-02-01T12:55:22;38.15;;;20.58;;
25511;SDS011;13414;44.534;18.700;2023-02-01T12:57:55;32.63;;;19.50;;
25511;SDS011;13414;44.534;18.700;2023-02-01T13:00:27;32.63;;;20.52;;
25511;SDS011;13414;44.534;18.700;2023-02-01T13:03:00;33.60;;;21.52;;
25511;SDS011;13414;44.534;18.700;2023-02-01T13:05:34;34.75;;;21.30;;
25511;SDS011;13414;44.534;18.700;2023-02-01T13:08:11;34.47;;;20.50;;
25511;SDS011;13414;44.534;18.700;2023-02-01T13:10:43;33.70;;;21.15;;
25511;SDS011;13414;44.534;18.700;2023-02-01T13:13:14;31.70;;;20.10;;
25511;SDS011;13414;44.534;18.700;2023-02-01T13:15:47;34.22;;;21.05;;
25511;SDS011;13414;44.534;18.700;2023-02-01T13:18:19;41.03;;;22.65;;
25511;SDS011;13414;44.534;18.700;2023-02-01T13:20:53;37.17;;;21.58;;
25511;SDS011;13414;44.534;18.700;2023-02-01T13:23:30;39.28;;;21.92;;
25511;SDS011;13414;44.534;18.700;2023-02-01T13:26:00;34.17;;;21.95;;
25511;SDS011;13414;44.534;18.700;2023-02-01T13:28:29;34.22;;;21.98;;
25511;SDS011;13414;44.534;18.700;2023-02-01T13:31:08;39.92;;;25.02;;
25511;SDS011;13414;44.534;18.700;2023-02-01T13:33:59;40.38;;;24.27;;
25511;SDS011;13414;44.534;18.700;2023-02-01T13:36:59;38.50;;;24.08;;
25511;SDS011;13414;44.534;18.700;2023-02-01T13:39:50;42.15;;;27.02;;
25511;SDS011;13414;44.534;18.700;2023-02-01T13:42:26;46.78;;;26.50;;
25511;SDS011;13414;44.534;18.700;2023-02-01T13:44:56;55.72;;;30.33;;
25511;SDS011;13414;44.534;18.700;2023-02-01T13:47:27;55.83;;;29.55;;
25511;SDS011;13414;44.534;18.700;2023-02-01T13:49:58;48.00;;;29.25;;
25511;SDS011;13414;44.534;18.700;2023-02-01T13:52:31;51.28;;;29.33;;
25511;SDS011;13414;44.534;18.700;2023-02-01T13:55:13;52.10;;;30.77;;
25511;SDS011;13414;44.534;18.700;2023-02-01T13:57:50;48.20;;;27.98;;
25511;SDS011;13414;44.534;18.700;2023-02-01T14:00:26;46.75;;;28.23;;
25511;SDS011;13414;44.534;18.700;2023-02-01T14:15:25;53.88;;;32.15;;
25511;SDS011;13414;44.534;18.700;2023-02-01T14:17:54;50.63;;;31.77;;
25511;SDS011;13414;44.534;18.700;2023-02-01T14:23:24;48.85;;;30.70;;
25511;SDS011;13414;44.534;18.700;2023-02-01T14:29:00;57.50;;;34.60;;
25511;SDS011;13414;44.534;18.700;2023-02-01T14:31:43;55.67;;;34.90;;
25511;SDS011;13414;44.534;18.700;2023-02-01T14:34:16;76.28;;;41.63;;
25511;SDS011;13414;44.534;18.700;2023-02-01T14:36:48;83.32;;;50.22;;
25511;SDS011;13414;44.534;18.700;2023-02-01T14:39:19;66.43;;;39.55;;
25511;SDS011;13414;44.534;18.700;2023-02-01T14:41:52;79.55;;;41.22;;
25511;SDS011;13414;44.534;18.700;2023-02-01T14:44:27;66.47;;;40.67;;
25511;SDS011;13414;44.534;18.700;2023-02-01T14:47:11;67.47;;;40.33;;
25511;SDS011;13414;44.534;18.700;2023-02-01T14:50:03;106.75;;;58.17;;
25511;SDS011;13414;44.534;18.700;2023-02-01T14:52:57;128.02;;;80.30;;
25511;SDS011;13414;44.534;18.700;2023-02-01T14:55:54;134.32;;;79.60;;
25511;SDS011;13414;44.534;18.700;2023-02-01T14:58:34;148.88;;;86.05;;
25511;SDS011;13414;44.534;18.700;2023-02-01T15:01:13;147.98;;;90.85;;
25511;SDS011;13414;44.534;18.700;2023-02-01T15:03:48;147.52;;;88.25;;
25511;SDS011;13414;44.534;18.700;2023-02-01T15:06:22;193.13;;;109.60;;
25511;SDS011;13414;44.534;18.700;2023-02-01T15:08:54;196.68;;;109.38;;
25511;SDS011;13414;44.534;18.700;2023-02-01T15:11:23;216.32;;;123.38;;